Capitol Logistics 788


RKSI
Incheon International Airport
Seoul, KR
WSSS
Changi International Airport
Singapore, SG

Route Details

Aircraft Information
Primary: Boeing 747-400BCF
Backup: Boeing 777-200LRF
Route Data
Distance: 2501nm
Sched. Duration: 6h 29m
Avg. Duration: 5h 77m (-52m)
Times Flown: 2
Recm'd Route: BOPTA1K BOPTA Z51 BEDES Y711 MUGUS Y742 SALMI Q11 TACLE Q12 KABAM N892 VMR
Planned Altitude: 34,000ft
Origin Wx: RKSI 312230Z 20010KT 9999 -RA SCT015 BKN020 OVC070 15/12 Q1019 NOSIG
Dest. Wx: WSSS 312230Z 31003KT 260V010 9999 FEW018 FEW020CB SCT140 BKN300 26/23 Q1010 NOSIG
Notes:

Financial History
Total Freight: 311,453lbs
Average Load: 155,727lbs/flt
Fuel Used: 204,560lbs
Avg. Fuel Used: 102,280lbs/flt
Fuel Expense: $163,648
Avg. Fuel Expense: $81,824
Avg. Fuel Cost: $0.80/lbs
Total Gross Income: $968,595
Pilot Pay: $468
Total Expenses: $104,712
Total Revenue: $697,259
Average Revenue: $484,297.50